Time;durP1;ratioP1;P1;durP2;ratioP2;P2;SDS_P1;SDS_P2;PMS_P1;PMS_P2;Temp;Humidity;BMP_temperature;BMP_pressure;BME280_temperature;BME280_humidity;BME280_pressure;Samples;Min_cycle;Max_cycle;Signal;HPM_P1;HPM_P2
2021/11/17 02:25:41;;;;;;;31.50;16.80;;;;;;;3.34;75.33;100723.65;129915;1285;108867;-77
2021/11/17 02:29:01;;;;;;;32.90;17.40;;;;;;;3.30;75.25;100720.58;129945;1284;109894;-79
2021/11/17 02:32:20;;;;;;;26.90;14.30;;;;;;;3.27;75.34;100716.86;129856;1287;107602;-78
2021/11/17 02:35:40;;;;;;;27.70;15.50;;;;;;;3.31;75.46;100714.16;129995;1287;108628;-79
2021/11/17 02:38:56;;;;;;;29.70;16.50;;;;;;;3.37;75.26;100714.66;129954;1286;108905;-79
2021/11/17 02:42:20;;;;;;;27.00;15.80;;;;;;;3.36;75.17;100713.84;129929;1287;108647;-79
2021/11/17 02:45:44;;;;;;;27.40;15.90;;;;;;;3.36;75.20;100715.46;129903;1282;108737;-78
2021/11/17 02:49:00;;;;;;;28.10;16.00;;;;;;;3.32;75.11;100711.80;129999;1284;108588;-77
2021/11/17 02:52:21;;;;;;;28.30;16.30;;;;;;;3.30;75.17;100705.61;129955;1286;108615;-79
2021/11/17 02:55:40;;;;;;;28.30;15.90;;;;;;;3.23;75.22;100700.41;130038;1287;108626;-77
2021/11/17 02:59:08;;;;;;;30.60;16.70;;;;;;;3.18;75.11;100697.02;129912;1286;108663;-78
2021/11/17 03:02:33;;;;;;;28.50;15.90;;;;;;;3.11;75.15;100696.23;130019;1284;108768;-79
2021/11/17 03:05:51;;;;;;;26.00;14.20;;;;;;;3.08;75.16;100704.84;129994;1286;108641;-82
2021/11/17 03:09:11;;;;;;;27.20;15.10;;;;;;;3.13;75.25;100703.45;129897;1287;108832;-81
2021/11/17 03:12:33;;;;;;;25.40;15.50;;;;;;;3.15;75.13;100699.30;129940;1285;108629;-81
2021/11/17 03:16:00;;;;;;;27.80;15.70;;;;;;;3.14;75.16;100698.11;129913;1286;108806;-80
2021/11/17 03:19:16;;;;;;;24.60;14.60;;;;;;;3.18;75.17;100700.75;129963;1282;108618;-80
2021/11/17 03:22:37;;;;;;;27.20;15.60;;;;;;;3.16;75.12;100700.83;130121;1285;108638;-83
2021/11/17 03:25:53;;;;;;;28.30;15.70;;;;;;;3.14;75.13;100700.27;129960;1286;108226;-78
2021/11/17 03:29:13;;;;;;;30.80;16.50;;;;;;;3.08;75.22;100698.69;129928;1285;108621;-80
2021/11/17 03:32:37;;;;;;;26.40;15.70;;;;;;;3.06;75.24;100696.38;129921;1282;108667;-78
2021/11/17 03:35:56;;;;;;;24.60;13.00;;;;;;;3.04;75.14;100691.40;129981;1285;108628;-77
2021/11/17 03:39:29;;;;;;;24.70;14.10;;;;;;;3.04;75.17;100685.56;129832;1286;108595;-78
2021/11/17 03:42:49;;;;;;;23.70;14.10;;;;;;;3.06;75.16;100685.13;130003;1284;108622;-80
2021/11/17 03:46:07;;;;;;;25.70;15.20;;;;;;;3.05;75.03;100687.11;130052;1286;108677;-76
2021/11/17 03:49:28;;;;;;;24.90;14.60;;;;;;;3.03;75.12;100689.67;129933;1286;107429;-76
2021/11/17 03:52:45;;;;;;;23.50;13.40;;;;;;;3.01;74.98;100685.22;130027;1286;108367;-78
2021/11/17 03:56:08;;;;;;;23.70;14.00;;;;;;;2.93;74.98;100686.62;130150;1286;108678;-81
2021/11/17 03:59:32;;;;;;;20.50;12.50;;;;;;;2.79;74.98;100687.45;130048;1287;108731;-80
2021/11/17 04:02:48;;;;;;;23.20;13.60;;;;;;;2.72;75.10;100687.84;130042;1285;108606;-81
2021/11/17 04:06:04;;;;;;;23.60;13.20;;;;;;;2.67;75.17;100684.98;130109;1284;108603;-78
2021/11/17 04:09:19;;;;;;;20.60;12.20;;;;;;;2.66;75.25;100688.02;130209;1285;108711;-75
2021/11/17 04:12:35;;;;;;;20.80;12.30;;;;;;;2.69;75.20;100683.66;129945;1286;108654;-77
2021/11/17 04:15:54;;;;;;;22.50;13.50;;;;;;;2.71;75.10;100682.45;129952;1286;108744;-78
2021/11/17 04:19:09;;;;;;;19.50;12.40;;;;;;;2.68;75.05;100675.59;130278;1286;109059;-79
2021/11/17 04:22:26;;;;;;;20.90;12.80;;;;;;;2.68;74.97;100670.86;130049;1285;108582;-76
2021/11/17 04:25:46;;;;;;;25.00;14.30;;;;;;;2.67;74.96;100677.13;130044;1286;108407;-80
2021/11/17 04:29:11;;;;;;;24.00;14.20;;;;;;;2.61;75.14;100677.45;129904;1285;108806;-80
2021/11/17 04:32:54;;;;;;;25.80;15.40;;;;;;;2.54;75.00;100673.14;130139;1286;108230;-81
2021/11/17 04:36:11;;;;;;;26.10;14.80;;;;;;;2.46;75.04;100667.96;130053;1286;108837;-77
2021/11/17 04:39:49;;;;;;;25.50;13.70;;;;;;;2.39;75.09;100664.35;130158;1285;108605;-78
2021/11/17 04:43:30;;;;;;;20.90;11.70;;;;;;;2.37;75.25;100668.69;129817;1279;162003;-77
2021/11/17 04:46:52;;;;;;;21.50;12.70;;;;;;;2.41;75.22;100661.79;129984;1286;106512;-77
2021/11/17 04:50:25;;;;;;;24.40;13.50;;;;;;;2.43;75.18;100655.55;129995;1285;108605;-79
2021/11/17 04:53:43;;;;;;;23.70;14.30;;;;;;;2.40;75.15;100647.63;129869;1285;108730;-79
2021/11/17 04:56:59;;;;;;;21.70;12.40;;;;;;;2.37;75.08;100649.04;130146;1285;108789;-78
2021/11/17 05:00:20;;;;;;;22.00;12.80;;;;;;;2.33;75.07;100646.59;129859;1285;108661;-76
2021/11/17 05:03:36;;;;;;;21.40;12.80;;;;;;;2.30;75.19;100641.34;129899;1286;106800;-79
2021/11/17 05:06:57;;;;;;;24.60;13.80;;;;;;;2.25;75.27;100646.20;130017;1285;108673;-80
2021/11/17 05:10:14;;;;;;;26.90;13.60;;;;;;;2.23;75.24;100644.21;130158;1285;108634;-79
2021/11/17 05:13:30;;;;;;;21.30;12.00;;;;;;;2.23;75.33;100646.49;130110;1287;108790;-76
2021/11/17 05:16:45;;;;;;;21.20;12.60;;;;;;;2.25;75.32;100644.10;129945;1285;108832;-77
2021/11/17 05:19:56;;;;;;;20.50;12.40;;;;;;;2.31;75.20;100642.14;129936;1285;108932;-78
2021/11/17 05:23:13;;;;;;;22.30;13.90;;;;;;;2.35;75.17;100643.84;130158;1284;108605;-75
2021/11/17 05:26:27;;;;;;;21.50;12.80;;;;;;;2.35;75.25;100646.67;129998;1285;107165;-77
2021/11/17 05:29:46;;;;;;;22.70;13.50;;;;;;;2.32;75.29;100642.83;129947;1286;108582;-78
2021/11/17 05:33:02;;;;;;;23.90;13.70;;;;;;;2.30;75.34;100643.64;129951;1285;108785;-80
2021/11/17 05:36:17;;;;;;;25.00;13.90;;;;;;;2.27;75.35;100640.83;129940;1286;108649;-79
2021/11/17 05:39:35;;;;;;;23.10;13.70;;;;;;;2.25;75.33;100636.05;129927;1285;108602;-80
2021/11/17 05:42:51;;;;;;;24.90;13.10;;;;;;;2.25;75.52;100632.34;130000;1284;107628;-79
2021/11/17 05:46:17;;;;;;;22.30;14.00;;;;;;;2.27;75.56;100632.38;129834;1285;108668;-76
2021/11/17 05:49:32;;;;;;;24.00;13.70;;;;;;;2.30;75.63;100631.51;129998;1287;108627;-76
2021/11/17 05:52:47;;;;;;;22.90;13.70;;;;;;;2.31;75.52;100633.58;129884;1286;108624;-78
2021/11/17 05:56:12;;;;;;;23.40;13.50;;;;;;;2.27;75.56;100642.56;130008;1287;108683;-78
2021/11/17 05:59:32;;;;;;;23.50;13.90;;;;;;;2.26;75.58;100651.61;129956;1285;108705;-80
2021/11/17 06:02:54;;;;;;;24.90;14.70;;;;;;;2.24;75.55;100651.19;130037;1286;108804;-80
2021/11/17 06:05:55;;;;;;;27.70;15.30;;;;;;;2.21;75.62;100647.35;129951;1285;108640;-78
2021/11/17 06:08:56;;;;;;;27.50;15.30;;;;;;;2.21;75.73;100645.59;130046;1286;96671;-79
2021/11/17 06:12:03;;;;;;;22.90;12.50;;;;;;;2.23;75.75;100647.04;129922;1286;97445;-80
2021/11/17 06:15:09;;;;;;;24.80;14.40;;;;;;;2.26;75.82;100654.77;129906;1284;97759;-78
2021/11/17 06:18:15;;;;;;;27.40;14.40;;;;;;;2.32;75.78;100652.83;130070;1285;96640;-79
2021/11/17 06:21:18;;;;;;;27.70;15.80;;;;;;;2.36;75.75;100654.70;130137;1287;96748;-80
2021/11/17 06:24:24;;;;;;;28.50;14.90;;;;;;;2.36;75.73;100657.47;130184;1286;98338;-79
2021/11/17 06:27:29;;;;;;;25.80;15.00;;;;;;;2.40;75.76;100650.80;130027;1286;96665;-80
2021/11/17 06:30:35;;;;;;;28.90;16.10;;;;;;;2.41;75.68;100650.02;130039;1286;96677;-79
2021/11/17 06:33:38;;;;;;;32.80;17.10;;;;;;;2.40;75.74;100651.84;130000;1285;97720;-79
2021/11/17 06:36:41;;;;;;;30.50;16.30;;;;;;;2.41;75.72;100652.14;130181;1286;96672;-80
2021/11/17 06:39:46;;;;;;;23.60;13.30;;;;;;;2.44;75.85;100652.45;130170;1285;96967;-79
2021/11/17 06:42:52;;;;;;;26.40;14.70;;;;;;;2.52;75.78;100651.46;130164;1285;97406;-80
2021/11/17 06:45:56;;;;;;;27.30;15.30;;;;;;;2.60;75.90;100655.06;130243;1285;96667;-80
2021/11/17 06:48:59;;;;;;;26.60;15.40;;;;;;;2.68;75.88;100656.48;130229;1286;96659;-84
2021/11/17 06:52:02;;;;;;;25.90;15.50;;;;;;;2.73;75.81;100656.38;130414;1284;97731;-83
2021/11/17 06:55:08;;;;;;;25.20;14.90;;;;;;;2.74;75.77;100655.57;130244;1286;96662;-82
2021/11/17 06:58:10;;;;;;;27.20;15.80;;;;;;;2.78;75.91;100659.09;130327;1285;97418;-81
2021/11/17 07:01:13;;;;;;;26.70;15.60;;;;;;;2.79;75.89;100653.05;130337;1286;96630;-79
2021/11/17 07:04:16;;;;;;;27.10;15.20;;;;;;;2.83;75.86;100653.31;130186;1286;97184;-79
2021/11/17 07:07:18;;;;;;;24.50;13.40;;;;;;;2.89;76.03;100656.63;130070;1285;96649;-80
2021/11/17 07:10:25;;;;;;;29.80;16.40;;;;;;;2.96;76.16;100656.89;130051;1285;97749;-77
2021/11/17 07:13:28;;;;;;;26.50;16.10;;;;;;;3.04;76.02;100659.38;130157;1282;96664;-82
2021/11/17 07:16:33;;;;;;;28.80;16.40;;;;;;;3.13;76.04;100657.60;130211;1287;96653;-76
2021/11/17 07:19:35;;;;;;;30.40;17.40;;;;;;;3.22;76.11;100656.69;130062;1285;97700;-76
2021/11/17 07:22:39;;;;;;;29.00;17.30;;;;;;;3.28;75.87;100661.92;130079;1285;97326;-79
2021/11/17 07:25:42;;;;;;;29.50;17.20;;;;;;;3.33;76.04;100663.55;129868;1286;97823;-81
2021/11/17 07:28:44;;;;;;;33.60;18.10;;;;;;;3.39;75.97;100668.65;130260;1286;97781;-78
2021/11/17 07:31:47;;;;;;;31.60;17.50;;;;;;;3.43;75.94;100673.29;130042;1285;97426;-76
2021/11/17 07:34:50;;;;;;;25.70;14.80;;;;;;;3.52;76.21;100672.55;130378;1287;96697;-78
2021/11/17 07:37:54;;;;;;;28.90;16.70;;;;;;;3.64;76.13;100669.69;130068;1285;96668;-78
2021/11/17 07:40:57;;;;;;;30.90;17.90;;;;;;;3.76;76.08;100666.27;130100;1287;96656;-77
2021/11/17 07:43:59;;;;;;;33.20;18.50;;;;;;;3.84;75.97;100664.88;130117;1285;97210;-77
2021/11/17 07:47:02;;;;;;;33.40;19.00;;;;;;;3.92;76.17;100664.92;130003;1284;97646;-77
2021/11/17 07:50:07;;;;;;;32.50;18.30;;;;;;;3.97;76.03;100658.95;130053;1285;96684;-77
2021/11/17 07:53:11;;;;;;;32.30;19.30;;;;;;;3.96;75.97;100664.30;129916;1286;96697;-77
2021/11/17 07:56:15;;;;;;;33.40;18.00;;;;;;;3.95;76.24;100659.30;130089;1285;97878;-76
2021/11/17 07:59:21;;;;;;;33.10;19.00;;;;;;;3.96;76.15;100659.16;130056;1286;96726;-77
2021/11/17 08:02:26;;;;;;;28.80;16.50;;;;;;;4.02;76.28;100657.40;130064;1285;96655;-76
2021/11/17 08:05:29;;;;;;;29.90;18.00;;;;;;;4.08;76.33;100657.52;130082;1286;96731;-79
2021/11/17 08:08:32;;;;;;;30.80;18.00;;;;;;;4.18;76.32;100658.09;130069;1285;96640;-79
2021/11/17 08:11:38;;;;;;;31.10;19.10;;;;;;;4.26;76.45;100654.03;130324;1286;96664;-80
2021/11/17 08:14:41;;;;;;;31.60;19.00;;;;;;;4.34;76.52;100652.63;130044;1286;96639;-79
2021/11/17 08:17:44;;;;;;;35.20;20.60;;;;;;;4.41;76.43;100650.58;130124;1285;97761;-79
2021/11/17 08:20:47;;;;;;;35.10;20.40;;;;;;;4.46;76.66;100647.05;130022;1286;98240;-78
2021/11/17 08:23:50;;;;;;;32.10;18.90;;;;;;;4.52;76.73;100649.80;130177;1285;97338;-78
2021/11/17 08:26:52;;;;;;;34.70;20.10;;;;;;;4.62;76.74;100642.42;130053;1286;97431;-79
2021/11/17 08:29:57;;;;;;;52.40;31.40;;;;;;;4.75;76.82;100642.25;129996;1285;97448;-78
2021/11/17 08:33:00;;;;;;;38.70;22.90;;;;;;;4.88;76.86;100646.81;130054;1286;98071;-79
2021/11/17 08:36:03;;;;;;;34.80;21.60;;;;;;;4.98;76.72;100647.89;130048;1285;96652;-78
2021/11/17 08:39:06;;;;;;;32.10;20.40;;;;;;;5.05;76.71;100652.53;130164;1286;96668;-76
2021/11/17 08:42:10;;;;;;;36.30;21.70;;;;;;;5.10;76.79;100653.04;130095;1284;97153;-77
2021/11/17 08:45:14;;;;;;;37.40;21.80;;;;;;;5.15;76.77;100655.03;130179;1286;97400;-78
2021/11/17 08:48:18;;;;;;;36.20;21.50;;;;;;;5.18;76.94;100648.96;130235;1285;97391;-78
2021/11/17 08:51:26;;;;;;;35.20;20.60;;;;;;;5.24;77.03;100647.27;130297;1285;96683;-78
2021/11/17 08:54:30;;;;;;;36.60;24.10;;;;;;;5.34;77.11;100651.19;130120;1284;97600;-78
2021/11/17 08:57:33;;;;;;;39.80;24.50;;;;;;;5.45;77.01;100652.29;130296;1286;97365;-77
2021/11/17 09:00:37;;;;;;;41.00;26.70;;;;;;;5.57;76.92;100648.33;130308;1287;96739;-79
2021/11/17 09:03:40;;;;;;;44.30;29.10;;;;;;;5.65;77.02;100652.50;131617;1286;96646;-79
2021/11/17 09:06:43;;;;;;;36.10;22.70;;;;;;;5.70;76.86;100649.83;130326;1287;96753;-83
2021/11/17 09:09:45;;;;;;;33.40;19.70;;;;;;;5.70;76.98;100647.33;130343;1285;97183;-77
2021/11/17 09:12:49;;;;;;;34.60;20.80;;;;;;;5.72;76.79;100647.20;130072;1286;97728;-76
2021/11/17 09:15:54;;;;;;;34.70;21.40;;;;;;;5.79;76.99;100650.09;130465;1287;97423;-77
2021/11/17 09:18:57;;;;;;;33.70;21.00;;;;;;;5.88;77.08;100645.80;130415;1287;97743;-76
2021/11/17 09:22:01;;;;;;;35.30;21.70;;;;;;;6.01;77.22;100644.79;130093;1285;97423;-79
2021/11/17 09:25:06;;;;;;;36.60;23.40;;;;;;;6.12;77.12;100635.09;129882;1286;96772;-78
2021/11/17 09:28:09;;;;;;;37.00;23.30;;;;;;;6.22;76.90;100629.61;130239;1286;97400;-77
2021/11/17 09:31:12;;;;;;;36.20;22.70;;;;;;;6.27;76.86;100630.77;130010;1284;98091;-77
2021/11/17 09:34:16;;;;;;;38.10;23.60;;;;;;;6.30;76.91;100631.99;130031;1286;96639;-77
2021/11/17 09:37:23;;;;;;;35.80;21.40;;;;;;;6.31;76.87;100628.23;130241;1287;97423;-76
2021/11/17 09:40:29;;;;;;;33.80;20.50;;;;;;;6.34;76.96;100624.10;129938;1287;97316;-75
2021/11/17 09:43:38;;;;;;;35.90;21.20;;;;;;;6.49;77.88;100620.07;130146;1286;96678;-77
2021/11/17 09:46:41;;;;;;;36.60;22.40;;;;;;;6.58;77.03;100616.63;130476;1285;96659;-79
2021/11/17 09:49:50;;;;;;;37.90;22.70;;;;;;;6.66;76.84;100615.99;130293;1284;96666;-78
2021/11/17 09:52:56;;;;;;;36.80;23.10;;;;;;;6.73;76.76;100610.86;129879;1286;96752;-78
2021/11/17 09:56:03;;;;;;;34.00;22.60;;;;;;;6.77;76.77;100606.34;130147;1285;96662;-78
2021/11/17 09:59:09;;;;;;;34.30;22.30;;;;;;;6.80;76.64;100603.62;130123;1286;97718;-77
2021/11/17 10:02:16;;;;;;;33.90;23.10;;;;;;;6.82;76.51;100602.70;130079;1284;96682;-74
2021/11/17 10:05:35;;;;;;;34.90;21.50;;;;;;;6.83;76.62;100603.16;130058;1287;97720;-77
2021/11/17 10:09:16;;;;;;;34.50;21.80;;;;;;;6.84;76.52;100604.70;130128;1287;97740;-78
2021/11/17 10:15:40;;;;;;;37.40;23.60;;;;;;;6.98;76.70;100600.40;130014;1286;96745;-77
2021/11/17 10:18:44;;;;;;;41.70;23.80;;;;;;;7.01;76.40;100599.98;129832;1287;97672;-77
2021/11/17 10:21:57;;;;;;;37.20;24.60;;;;;;;6.99;76.42;100600.66;130051;1285;96671;-77
2021/11/17 10:25:09;;;;;;;37.50;24.50;;;;;;;6.99;76.42;100600.48;130064;1287;97444;-77
2021/11/17 10:28:12;;;;;;;36.40;23.60;;;;;;;7.03;76.74;100600.37;130071;1285;97928;-77
2021/11/17 10:31:19;;;;;;;35.60;21.50;;;;;;;7.14;76.75;100598.95;130063;1286;97752;-77
2021/11/17 10:34:28;;;;;;;33.60;20.40;;;;;;;7.25;76.85;100599.45;130048;1285;97402;-77
2021/11/17 10:37:34;;;;;;;31.00;19.40;;;;;;;7.40;76.78;100590.31;130071;1287;97165;-75
2021/11/17 10:40:48;;;;;;;31.30;21.00;;;;;;;7.59;77.32;100589.14;130006;1287;96643;-76
2021/11/17 10:43:58;;;;;;;30.80;19.40;;;;;;;7.89;78.19;100585.13;130108;1286;96624;-75
2021/11/17 10:47:00;;;;;;;33.50;18.80;;;;;;;8.28;79.43;100585.02;129993;1285;97463;-76
2021/11/17 10:50:15;;;;;;;30.50;18.10;;;;;;;8.67;79.10;100582.95;130040;1287;97721;-77
2021/11/17 10:53:28;;;;;;;32.40;22.20;;;;;;;8.83;76.36;100576.02;130057;1286;96656;-76
2021/11/17 10:56:31;;;;;;;30.90;18.00;;;;;;;8.86;77.51;100571.18;130117;1285;96640;-77
2021/11/17 10:59:34;;;;;;;31.50;21.40;;;;;;;9.19;78.81;100576.61;130040;1285;96909;-74
2021/11/17 11:02:39;;;;;;;31.60;21.50;;;;;;;9.46;77.83;100580.05;130147;1286;97735;-76
2021/11/17 11:05:45;;;;;;;30.70;20.80;;;;;;;9.70;78.62;100581.48;130108;1285;97749;-75
2021/11/17 11:08:56;;;;;;;26.90;17.70;;;;;;;9.95;77.71;100575.81;130193;1286;97731;-76
2021/11/17 11:12:00;;;;;;;32.20;21.50;;;;;;;10.04;76.74;100576.05;129844;1287;96736;-76
2021/11/17 11:15:07;;;;;;;30.70;20.20;;;;;;;10.08;76.18;100570.73;130055;1286;97413;-77
2021/11/17 11:18:38;;;;;;;31.20;21.70;;;;;;;10.01;75.55;100566.55;130036;1285;97749;-76
2021/11/17 11:22:10;;;;;;;31.30;21.70;;;;;;;9.92;75.40;100559.44;130185;1287;97329;-75
2021/11/17 11:25:41;;;;;;;31.80;21.80;;;;;;;9.75;75.22;100556.83;130066;1285;96742;-76
2021/11/17 11:28:50;;;;;;;30.40;21.10;;;;;;;9.54;74.91;100549.56;130056;1286;97748;-76
2021/11/17 11:31:53;;;;;;;32.00;22.30;;;;;;;9.38;75.31;100552.55;130117;1284;97528;-75
2021/11/17 11:35:15;;;;;;;34.00;22.00;;;;;;;9.22;75.17;100547.27;130419;1286;97531;-75
2021/11/17 11:38:32;;;;;;;35.80;23.50;;;;;;;9.03;74.77;100544.73;129824;1286;97772;-78
2021/11/17 11:41:39;;;;;;;34.70;24.30;;;;;;;8.83;74.67;100540.97;130134;1287;97619;-76
2021/11/17 11:44:44;;;;;;;34.40;22.80;;;;;;;8.68;75.08;100532.86;130177;1284;96690;-74
2021/11/17 11:47:53;;;;;;;33.50;19.90;;;;;;;8.55;74.81;100525.79;130260;1285;97622;-74
2021/11/17 11:51:25;;;;;;;34.20;22.90;;;;;;;8.48;74.96;100522.35;130252;1284;96652;-75
2021/11/17 11:54:32;;;;;;;36.30;23.80;;;;;;;8.41;74.75;100521.48;130120;1287;96639;-76
2021/11/17 11:57:37;;;;;;;31.60;22.60;;;;;;;8.39;74.85;100522.21;130152;1285;98048;-77
2021/11/17 12:00:40;;;;;;;35.90;24.10;;;;;;;8.36;74.68;100519.27;130129;1287;97518;-74
2021/11/17 12:03:52;;;;;;;29.80;19.60;;;;;;;8.33;75.04;100523.23;130318;1285;97719;-72
2021/11/17 12:06:58;;;;;;;25.90;16.00;;;;;;;8.54;78.04;100526.02;130094;1286;96745;-76
2021/11/17 12:10:24;;;;;;;32.90;19.90;;;;;;;8.99;79.66;100520.89;130042;1286;97715;-74
2021/11/17 12:13:30;;;;;;;23.70;14.80;;;;;;;9.51;79.46;100512.15;130224;1287;96641;-76
2021/11/17 12:16:37;;;;;;;21.60;15.20;;;;;;;9.92;78.93;100506.27;130350;1284;96690;-77
2021/11/17 12:19:45;;;;;;;25.10;17.50;;;;;;;10.35;79.34;100503.66;129963;1285;96720;-75
2021/11/17 12:22:50;;;;;;;28.70;21.00;;;;;;;10.90;80.21;100502.01;130036;1287;96838;-75
2021/11/17 12:25:57;;;;;;;29.30;21.00;;;;;;;11.21;78.07;100503.73;130028;1286;96657;-76
2021/11/17 12:29:11;;;;;;;24.80;18.70;;;;;;;11.40;76.94;100499.44;130106;1287;97425;-74
2021/11/17 12:32:19;;;;;;;26.20;17.40;;;;;;;11.46;76.46;100493.11;130107;1286;96655;-75
2021/11/17 12:35:27;;;;;;;26.00;16.70;;;;;;;11.59;76.90;100491.69;130001;1287;97722;-75
2021/11/17 12:38:30;;;;;;;29.60;19.80;;;;;;;11.72;77.00;100490.52;130103;1286;96662;-75
2021/11/17 12:41:36;;;;;;;24.60;17.90;;;;;;;11.78;75.53;100493.08;129978;1286;97649;-75
2021/11/17 12:44:43;;;;;;;26.30;17.50;;;;;;;11.81;76.10;100492.30;129954;1287;97300;-75
2021/11/17 12:47:50;;;;;;;30.90;20.90;;;;;;;11.98;76.19;100493.04;130049;1286;97420;-76
2021/11/17 12:50:56;;;;;;;28.70;21.20;;;;;;;11.91;75.27;100493.95;130503;1286;97730;-74
2021/11/17 12:54:04;;;;;;;31.30;22.50;;;;;;;11.79;74.22;100488.75;130115;1287;97722;-78
2021/11/17 12:57:13;;;;;;;31.30;21.80;;;;;;;11.55;74.14;100485.59;129982;1287;96690;-76
2021/11/17 13:00:38;;;;;;;34.50;23.20;;;;;;;11.34;73.76;100483.42;130016;1285;97423;-76
2021/11/17 13:03:58;;;;;;;32.30;23.50;;;;;;;11.07;73.73;100480.38;130127;1287;96680;-76
2021/11/17 13:07:04;;;;;;;33.00;22.60;;;;;;;10.83;73.58;100478.11;130245;1287;96840;-85
2021/11/17 13:10:08;;;;;;;34.00;23.50;;;;;;;10.61;73.57;100475.02;130082;1287;96744;-76
2021/11/17 13:13:15;;;;;;;35.50;25.00;;;;;;;10.42;73.51;100473.85;129956;1286;97406;-76
2021/11/17 13:16:23;;;;;;;32.90;23.20;;;;;;;10.23;73.99;100472.09;130442;1286;96739;-75
2021/11/17 13:19:31;;;;;;;36.00;24.10;;;;;;;10.06;73.63;100475.45;130154;1286;97365;-72
2021/11/17 13:22:36;;;;;;;37.60;25.20;;;;;;;9.88;73.77;100478.01;129905;1287;97712;-73
2021/11/17 13:25:54;;;;;;;36.30;25.30;;;;;;;9.74;73.58;100475.09;130187;1287;96665;-73
2021/11/17 13:29:16;;;;;;;34.40;23.80;;;;;;;9.59;73.41;100483.94;130134;1286;96658;-72
2021/11/17 13:32:25;;;;;;;35.30;22.50;;;;;;;9.44;73.58;100479.90;129982;1287;97296;-72
2021/11/17 13:35:32;;;;;;;32.10;20.60;;;;;;;9.34;73.59;100482.23;129930;1287;96664;-75
2021/11/17 13:38:36;;;;;;;34.60;23.90;;;;;;;9.27;73.46;100488.39;130042;1285;96639;-73
2021/11/17 13:41:42;;;;;;;36.70;24.60;;;;;;;9.21;73.53;100483.48;130165;1287;96662;-73
2021/11/17 13:44:44;;;;;;;34.30;22.90;;;;;;;9.16;73.53;100480.50;129931;1286;96771;-73
2021/11/17 13:47:48;;;;;;;38.10;24.70;;;;;;;9.10;73.35;100483.39;130032;1286;97247;-72
2021/11/17 13:50:51;;;;;;;35.50;24.70;;;;;;;9.01;73.49;100482.92;130130;1287;97696;-76
2021/11/17 13:53:54;;;;;;;38.00;25.20;;;;;;;8.93;73.31;100481.50;130221;1287;97423;-73
2021/11/17 13:56:58;;;;;;;35.70;24.30;;;;;;;8.85;73.43;100476.86;130301;1287;96624;-74
2021/11/17 14:00:03;;;;;;;35.70;23.80;;;;;;;8.77;73.27;100478.30;130195;1286;96658;-73
2021/11/17 14:03:14;;;;;;;35.70;24.30;;;;;;;8.69;73.40;100481.88;130191;1286;96682;-74
2021/11/17 14:06:21;;;;;;;36.70;24.40;;;;;;;8.60;73.31;100483.52;130181;1287;96674;-73
2021/11/17 14:09:25;;;;;;;38.00;25.20;;;;;;;8.53;73.28;100486.84;130018;1287;96808;-73
2021/11/17 14:12:28;;;;;;;39.00;22.80;;;;;;;8.44;73.22;100483.00;130076;1287;97791;-72
2021/11/17 14:15:32;;;;;;;38.30;21.60;;;;;;;8.37;73.18;100477.92;130042;1286;97623;-73
2021/11/17 14:18:34;;;;;;;37.90;25.10;;;;;;;8.32;73.28;100469.41;130087;1287;96767;-73
2021/11/17 14:21:38;;;;;;;35.20;22.90;;;;;;;8.31;73.36;100464.58;129946;1286;97273;-73
2021/11/17 14:24:41;;;;;;;38.50;23.50;;;;;;;8.30;73.15;100469.29;129996;1287;96639;-74
2021/11/17 14:27:48;;;;;;;35.10;23.80;;;;;;;8.29;72.95;100472.77;129959;1287;96636;-73
2021/11/17 14:30:53;;;;;;;36.40;24.50;;;;;;;8.25;73.04;100471.83;129968;1286;96656;-74
2021/11/17 14:33:58;;;;;;;38.40;24.70;;;;;;;8.21;73.14;100472.68;129975;1286;96748;-73
2021/11/17 14:37:04;;;;;;;41.20;26.50;;;;;;;8.16;73.10;100474.36;130005;1285;97644;-73
2021/11/17 14:40:11;;;;;;;42.50;26.60;;;;;;;8.10;73.06;100472.62;130104;1286;96694;-75
2021/11/17 14:43:13;;;;;;;41.70;27.20;;;;;;;8.03;73.28;100471.94;130204;1287;96756;-73
2021/11/17 14:46:16;;;;;;;42.40;24.90;;;;;;;7.96;73.33;100470.56;129932;1287;96744;-73
2021/11/17 14:49:18;;;;;;;36.30;22.60;;;;;;;7.91;73.28;100471.22;130007;1286;97490;-73
2021/11/17 14:52:23;;;;;;;41.10;25.80;;;;;;;7.89;73.21;100468.58;129944;1285;96774;-74
2021/11/17 14:55:28;;;;;;;44.50;25.80;;;;;;;7.89;73.43;100471.53;130270;1287;97722;-72
2021/11/17 14:58:30;;;;;;;38.70;24.20;;;;;;;7.90;73.21;100471.24;129971;1286;97754;-74
2021/11/17 15:01:36;;;;;;;42.90;26.00;;;;;;;7.90;73.31;100474.50;129905;1286;98557;-73
2021/11/17 15:04:39;;;;;;;43.70;26.90;;;;;;;7.87;73.19;100475.81;129920;1286;96701;-74
2021/11/17 15:07:41;;;;;;;43.30;25.90;;;;;;;7.83;73.28;100473.98;129993;1285;96666;-73
2021/11/17 15:10:46;;;;;;;39.40;25.50;;;;;;;7.80;73.39;100475.83;130222;1286;96670;-75
2021/11/17 15:13:50;;;;;;;44.60;27.70;;;;;;;7.76;73.32;100475.61;130071;1286;96664;-76
2021/11/17 15:16:53;;;;;;;42.90;26.80;;;;;;;7.73;73.25;100473.58;129923;1286;97754;-80
2021/11/17 15:19:55;;;;;;;42.90;25.00;;;;;;;7.68;73.18;100469.23;130041;1286;97847;-76
2021/11/17 15:22:59;;;;;;;40.50;24.10;;;;;;;7.64;73.28;100470.07;130440;1286;97445;-76
2021/11/17 15:26:03;;;;;;;43.20;26.00;;;;;;;7.64;73.32;100465.82;130100;1286;96671;-73
2021/11/17 15:29:06;;;;;;;42.10;27.00;;;;;;;7.64;73.10;100462.44;129991;1286;97422;-73
2021/11/17 15:32:09;;;;;;;43.30;26.60;;;;;;;7.68;73.31;100458.99;129951;1286;97831;-75
2021/11/17 15:35:13;;;;;;;65.10;32.20;;;;;;;7.66;73.23;100455.02;129933;1286;97748;-74
2021/11/17 15:38:17;;;;;;;185.70;68.00;;;;;;;7.66;73.00;100452.92;130060;1285;97401;-75
2021/11/17 15:41:24;;;;;;;74.90;45.20;;;;;;;7.63;73.16;100448.02;130018;1285;96712;-76
2021/11/17 15:44:27;;;;;;;50.00;31.10;;;;;;;7.60;73.02;100453.41;130024;1286;97753;-75
2021/11/17 15:47:29;;;;;;;49.50;29.00;;;;;;;7.57;73.15;100457.55;129943;1286;97747;-75
2021/11/17 15:50:35;;;;;;;44.90;26.40;;;;;;;7.54;73.19;100457.60;130074;1286;96646;-76
2021/11/17 15:53:39;;;;;;;39.20;23.70;;;;;;;7.52;73.42;100455.75;130051;1287;96645;-77
2021/11/17 15:56:42;;;;;;;52.20;32.50;;;;;;;7.52;73.07;100457.32;129985;1285;97345;-75
2021/11/17 15:59:45;;;;;;;47.00;27.90;;;;;;;7.55;73.31;100458.15;130134;1287;97647;-73
2021/11/17 16:02:48;;;;;;;49.50;28.60;;;;;;;7.60;73.27;100456.84;130100;1287;97738;-71
2021/11/17 16:05:52;;;;;;;47.10;28.70;;;;;;;7.62;73.29;100456.64;130116;1287;96669;-71
2021/11/17 16:08:54;;;;;;;46.80;28.20;;;;;;;7.60;72.93;100456.41;130156;1286;97763;-72
2021/11/17 16:11:58;;;;;;;45.40;29.00;;;;;;;7.61;72.86;100460.30;130161;1286;97721;-73
2021/11/17 16:15:02;;;;;;;45.60;29.30;;;;;;;7.59;73.15;100458.14;129826;1286;96666;-73
2021/11/17 16:18:05;;;;;;;46.50;31.60;;;;;;;7.56;73.00;100461.70;130004;1286;96671;-74
2021/11/17 16:21:08;;;;;;;48.80;26.50;;;;;;;7.53;73.17;100465.04;130017;1286;97423;-74
2021/11/17 16:27:36;;;;;;;111.40;60.90;;;;;;;7.51;73.04;100471.42;130038;1285;97301;-75
2021/11/17 16:30:41;;;;;;;63.50;37.10;;;;;;;7.54;73.03;100474.16;130014;1287;96662;-75
2021/11/17 16:33:44;;;;;;;70.00;39.60;;;;;;;7.59;73.11;100477.64;129997;1287;97621;-74
2021/11/17 16:36:49;;;;;;;141.60;74.80;;;;;;;7.62;73.08;100478.08;130045;1286;97683;-75
2021/11/17 16:39:52;;;;;;;77.30;40.40;;;;;;;7.61;73.08;100471.02;129804;1287;97649;-75
2021/11/17 16:42:56;;;;;;;60.90;35.00;;;;;;;7.60;73.11;100473.06;129916;1286;97438;-75
2021/11/17 16:45:58;;;;;;;50.00;30.70;;;;;;;7.60;72.88;100479.83;129969;1287;96796;-74
2021/11/17 16:49:02;;;;;;;61.50;37.50;;;;;;;7.58;73.19;100478.61;129891;1287;96636;-75